sensor_id;sensor_type;location;lat;lon;timestamp;pressure;altitude;pressure_sealevel;temperature;humidity
58947;BME280;44724;52.332;4.978;2022-10-16T00:01:56;100952.72;;;13.00;100.00
58947;BME280;44724;52.332;4.978;2022-10-16T00:04:22;100945.91;;;12.92;100.00
58947;BME280;44724;52.332;4.978;2022-10-16T00:06:47;100949.50;;;12.93;100.00
58947;BME280;44724;52.332;4.978;2022-10-16T00:09:13;100941.16;;;12.93;100.00
58947;BME280;44724;52.332;4.978;2022-10-16T00:11:39;100939.53;;;12.92;100.00
58947;BME280;44724;52.332;4.978;2022-10-16T00:14:11;100947.78;;;12.97;100.00
58947;BME280;44724;52.332;4.978;2022-10-16T00:16:37;100942.00;;;12.93;100.00
58947;BME280;44724;52.332;4.978;2022-10-16T00:19:03;100938.69;;;12.91;100.00
58947;BME280;44724;52.332;4.978;2022-10-16T00:21:32;100951.25;;;12.89;100.00
58947;BME280;44724;52.332;4.978;2022-10-16T00:24:06;100954.91;;;12.84;100.00
58947;BME280;44724;52.332;4.978;2022-10-16T00:26:33;100961.84;;;12.87;100.00
58947;BME280;44724;52.332;4.978;2022-10-16T00:28:59;100955.47;;;12.86;100.00
58947;BME280;44724;52.332;4.978;2022-10-16T00:31:25;100957.47;;;12.81;100.00
58947;BME280;44724;52.332;4.978;2022-10-16T00:33:50;100961.91;;;12.82;100.00
58947;BME280;44724;52.332;4.978;2022-10-16T00:36:19;100961.91;;;12.82;100.00
58947;BME280;44724;52.332;4.978;2022-10-16T00:38:50;100950.81;;;12.82;100.00
58947;BME280;44724;52.332;4.978;2022-10-16T00:41:18;100945.25;;;12.82;100.00
58947;BME280;44724;52.332;4.978;2022-10-16T00:43:47;100952.47;;;12.83;100.00
58947;BME280;44724;52.332;4.978;2022-10-16T00:48:42;100937.81;;;12.77;100.00
58947;BME280;44724;52.332;4.978;2022-10-16T00:51:09;100943.28;;;12.82;100.00
58947;BME280;44724;52.332;4.978;2022-10-16T00:53:37;100933.91;;;12.78;100.00
58947;BME280;44724;52.332;4.978;2022-10-16T00:56:03;100940.50;;;12.82;100.00
58947;BME280;44724;52.332;4.978;2022-10-16T00:58:28;100933.91;;;12.78;100.00
58947;BME280;44724;52.332;4.978;2022-10-16T01:00:54;100933.09;;;12.78;100.00
58947;BME280;44724;52.332;4.978;2022-10-16T01:03:29;100939.69;;;12.82;100.00
58947;BME280;44724;52.332;4.978;2022-10-16T01:08:53;100951.41;;;12.79;100.00
58947;BME280;44724;52.332;4.978;2022-10-16T01:11:31;100946.38;;;12.81;100.00
58947;BME280;44724;52.332;4.978;2022-10-16T01:14:01;100949.06;;;12.86;100.00
58947;BME280;44724;52.332;4.978;2022-10-16T01:16:35;100955.84;;;12.80;100.00
58947;BME280;44724;52.332;4.978;2022-10-16T01:21:57;100963.03;;;12.81;100.00
58947;BME280;44724;52.332;4.978;2022-10-16T01:24:39;100962.50;;;12.79;100.00
58947;BME280;44724;52.332;4.978;2022-10-16T01:29:53;100959.22;;;12.77;100.00
58947;BME280;44724;52.332;4.978;2022-10-16T01:32:33;100955.84;;;12.80;100.00
58947;BME280;44724;52.332;4.978;2022-10-16T01:37:39;100944.00;;;12.74;100.00
58947;BME280;44724;52.332;4.978;2022-10-16T01:40:11;100949.13;;;12.81;100.00
58947;BME280;44724;52.332;4.978;2022-10-16T01:42:59;100955.63;;;12.76;100.00
58947;BME280;44724;52.332;4.978;2022-10-16T01:45:28;100949.63;;;12.69;100.00
58947;BME280;44724;52.332;4.978;2022-10-16T01:47:55;100953.94;;;12.75;100.00
58947;BME280;44724;52.332;4.978;2022-10-16T01:50:21;100957.56;;;12.76;100.00
58947;BME280;44724;52.332;4.978;2022-10-16T01:52:50;100959.50;;;12.75;100.00
58947;BME280;44724;52.332;4.978;2022-10-16T01:55:30;100958.16;;;12.72;100.00
58947;BME280;44724;52.332;4.978;2022-10-16T01:57:57;100959.81;;;12.73;100.00
58947;BME280;44724;52.332;4.978;2022-10-16T02:00:26;100956.50;;;12.71;100.00
58947;BME280;44724;52.332;4.978;2022-10-16T02:02:53;100973.25;;;12.66;100.00
58947;BME280;44724;52.332;4.978;2022-10-16T02:05:28;100969.34;;;12.67;100.00
58947;BME280;44724;52.332;4.978;2022-10-16T02:07:56;100969.41;;;12.62;100.00
58947;BME280;44724;52.332;4.978;2022-10-16T02:10:23;100974.16;;;12.62;100.00
58947;BME280;44724;52.332;4.978;2022-10-16T02:12:57;100977.22;;;12.60;100.00
58947;BME280;44724;52.332;4.978;2022-10-16T02:15:24;100977.22;;;12.60;100.00
58947;BME280;44724;52.332;4.978;2022-10-16T02:17:52;100981.13;;;12.59;100.00
58947;BME280;44724;52.332;4.978;2022-10-16T02:20:20;100997.47;;;12.61;100.00
58947;BME280;44724;52.332;4.978;2022-10-16T02:22:51;100997.53;;;12.55;100.00
58947;BME280;44724;52.332;4.978;2022-10-16T02:25:46;101006.16;;;12.54;100.00
58947;BME280;44724;52.332;4.978;2022-10-16T02:28:16;101006.16;;;12.54;100.00
58947;BME280;44724;52.332;4.978;2022-10-16T02:30:46;100997.53;;;12.55;100.00
58947;BME280;44724;52.332;4.978;2022-10-16T02:33:15;101006.16;;;12.54;100.00
58947;BME280;44724;52.332;4.978;2022-10-16T02:35:43;101002.28;;;12.55;100.00
58947;BME280;44724;52.332;4.978;2022-10-16T02:38:10;101015.03;;;12.56;100.00
58947;BME280;44724;52.332;4.978;2022-10-16T02:40:37;101013.69;;;12.53;100.00
58947;BME280;44724;52.332;4.978;2022-10-16T02:43:04;101022.31;;;12.52;100.00
58947;BME280;44724;52.332;4.978;2022-10-16T02:45:30;101020.97;;;12.49;100.00
58947;BME280;44724;52.332;4.978;2022-10-16T02:47:55;101016.81;;;12.47;100.00
58947;BME280;44724;52.332;4.978;2022-10-16T02:50:23;101028.47;;;12.49;100.00
58947;BME280;44724;52.332;4.978;2022-10-16T02:52:50;101026.13;;;12.37;100.00
58947;BME280;44724;52.332;4.978;2022-10-16T02:55:15;101024.75;;;12.34;100.00
58947;BME280;44724;52.332;4.978;2022-10-16T02:57:41;101020.03;;;12.35;100.00
58947;BME280;44724;52.332;4.978;2022-10-16T03:00:09;101033.06;;;12.34;100.00
58947;BME280;44724;52.332;4.978;2022-10-16T03:02:35;101038.94;;;12.33;100.00
58947;BME280;44724;52.332;4.978;2022-10-16T03:05:01;101042.59;;;12.28;100.00
58947;BME280;44724;52.332;4.978;2022-10-16T03:07:26;101030.44;;;12.24;100.00
58947;BME280;44724;52.332;4.978;2022-10-16T03:09:51;101042.13;;;12.21;100.00
58947;BME280;44724;52.332;4.978;2022-10-16T03:12:17;101031.84;;;12.22;100.00
58947;BME280;44724;52.332;4.978;2022-10-16T03:14:42;101025.47;;;12.21;100.00
58947;BME280;44724;52.332;4.978;2022-10-16T03:17:08;101030.22;;;12.21;100.00
58947;BME280;44724;52.332;4.978;2022-10-16T03:19:33;101024.09;;;12.18;100.00
58947;BME280;44724;52.332;4.978;2022-10-16T03:21:58;101032.75;;;12.17;100.00
58947;BME280;44724;52.332;4.978;2022-10-16T03:24:24;101031.38;;;12.14;100.00
58947;BME280;44724;52.332;4.978;2022-10-16T03:26:49;101036.13;;;12.14;100.00
58947;BME280;44724;52.332;4.978;2022-10-16T03:29:14;101037.28;;;12.08;100.00
58947;BME280;44724;52.332;4.978;2022-10-16T03:31:40;101037.50;;;12.11;100.00
58947;BME280;44724;52.332;4.978;2022-10-16T03:34:05;101046.50;;;12.03;100.00
58947;BME280;44724;52.332;4.978;2022-10-16T03:36:31;101046.50;;;12.03;100.00
58947;BME280;44724;52.332;4.978;2022-10-16T03:38:56;101053.16;;;12.02;100.00
58947;BME280;44724;52.332;4.978;2022-10-16T03:41:21;101053.69;;;12.04;100.00
58947;BME280;44724;52.332;4.978;2022-10-16T03:43:47;101046.78;;;12.02;100.00
58947;BME280;44724;52.332;4.978;2022-10-16T03:46:12;101047.31;;;12.04;100.00
58947;BME280;44724;52.332;4.978;2022-10-16T03:48:38;101050.13;;;11.98;100.00
58947;BME280;44724;52.332;4.978;2022-10-16T03:51:05;101057.13;;;11.96;100.00
58947;BME280;44724;52.332;4.978;2022-10-16T03:53:30;101065.16;;;11.97;100.00
58947;BME280;44724;52.332;4.978;2022-10-16T03:55:56;101054.88;;;11.98;100.00
58947;BME280;44724;52.332;4.978;2022-10-16T03:58:21;101061.81;;;11.95;100.00
58947;BME280;44724;52.332;4.978;2022-10-16T04:00:47;101065.72;;;11.94;100.00
58947;BME280;44724;52.332;4.978;2022-10-16T04:03:13;101078.78;;;11.94;100.00
58947;BME280;44724;52.332;4.978;2022-10-16T04:05:39;101078.22;;;11.92;100.00
58947;BME280;44724;52.332;4.978;2022-10-16T04:08:05;101080.69;;;11.93;100.00
58947;BME280;44724;52.332;4.978;2022-10-16T04:10:30;101085.09;;;12.00;100.00
58947;BME280;44724;52.332;4.978;2022-10-16T04:12:56;101082.56;;;12.03;100.00
58947;BME280;44724;52.332;4.978;2022-10-16T04:15:22;101088.88;;;12.09;100.00
58947;BME280;44724;52.332;4.978;2022-10-16T04:17:48;101088.88;;;12.09;100.00
58947;BME280;44724;52.332;4.978;2022-10-16T04:20:14;101098.28;;;12.08;100.00
58947;BME280;44724;52.332;4.978;2022-10-16T04:22:39;101102.22;;;12.07;100.00
58947;BME280;44724;52.332;4.978;2022-10-16T04:25:05;101103.88;;;12.03;100.00
58947;BME280;44724;52.332;4.978;2022-10-16T04:27:30;101107.75;;;12.07;100.00
58947;BME280;44724;52.332;4.978;2022-10-16T04:29:57;101106.94;;;12.06;100.00
58947;BME280;44724;52.332;4.978;2022-10-16T04:32:25;101099.72;;;12.05;100.00
58947;BME280;44724;52.332;4.978;2022-10-16T04:34:51;101110.53;;;12.07;100.00
58947;BME280;44724;52.332;4.978;2022-10-16T04:37:16;101101.38;;;12.06;100.00
58947;BME280;44724;52.332;4.978;2022-10-16T04:39:42;101105.28;;;12.05;100.00
58947;BME280;44724;52.332;4.978;2022-10-16T04:42:07;101106.63;;;12.08;100.00
58947;BME280;44724;52.332;4.978;2022-10-16T04:44:34;101120.19;;;12.09;100.00
58947;BME280;44724;52.332;4.978;2022-10-16T04:47:00;101121.34;;;12.08;100.00
58947;BME280;44724;52.332;4.978;2022-10-16T04:49:29;101124.91;;;12.09;100.00
58947;BME280;44724;52.332;4.978;2022-10-16T04:51:54;101124.91;;;12.09;100.00
58947;BME280;44724;52.332;4.978;2022-10-16T04:54:20;101128.75;;;12.13;100.00
58947;BME280;44724;52.332;4.978;2022-10-16T04:56:45;101130.41;;;12.14;100.00
58947;BME280;44724;52.332;4.978;2022-10-16T04:59:16;101155.34;;;12.19;100.00
58947;BME280;44724;52.332;4.978;2022-10-16T05:01:42;101158.94;;;12.20;100.00
58947;BME280;44724;52.332;4.978;2022-10-16T05:04:08;101170.56;;;12.22;100.00
58947;BME280;44724;52.332;4.978;2022-10-16T05:06:33;101177.16;;;12.26;100.00
58947;BME280;44724;52.332;4.978;2022-10-16T05:08:59;101172.47;;;12.26;100.00
58947;BME280;44724;52.332;4.978;2022-10-16T05:11:24;101183.84;;;12.25;100.00
58947;BME280;44724;52.332;4.978;2022-10-16T05:13:49;101189.69;;;12.23;100.00
58947;BME280;44724;52.332;4.978;2022-10-16T05:16:15;101191.94;;;12.21;100.00
58947;BME280;44724;52.332;4.978;2022-10-16T05:18:41;101199.13;;;12.22;100.00
58947;BME280;44724;52.332;4.978;2022-10-16T05:21:06;101190.25;;;12.20;100.00
58947;BME280;44724;52.332;4.978;2022-10-16T05:23:33;101200.81;;;12.18;100.00
58947;BME280;44724;52.332;4.978;2022-10-16T05:25:59;101203.03;;;12.21;100.00
58947;BME280;44724;52.332;4.978;2022-10-16T05:28:25;101193.31;;;12.18;100.00
58947;BME280;44724;52.332;4.978;2022-10-16T05:30:51;101192.22;;;12.20;100.00
58947;BME280;44724;52.332;4.978;2022-10-16T05:33:17;101197.47;;;12.21;100.00
58947;BME280;44724;52.332;4.978;2022-10-16T05:35:42;101210.22;;;12.22;100.00
58947;BME280;44724;52.332;4.978;2022-10-16T05:38:09;101216.94;;;12.16;100.00
58947;BME280;44724;52.332;4.978;2022-10-16T05:40:34;101220.50;;;12.22;100.00
58947;BME280;44724;52.332;4.978;2022-10-16T05:43:00;101224.41;;;12.21;100.00
58947;BME280;44724;52.332;4.978;2022-10-16T05:45:26;101236.31;;;12.21;100.00
58947;BME280;44724;52.332;4.978;2022-10-16T05:47:51;101244.09;;;12.19;100.00
58947;BME280;44724;52.332;4.978;2022-10-16T05:50:17;101242.44;;;12.18;100.00
58947;BME280;44724;52.332;4.978;2022-10-16T05:52:42;101240.81;;;12.17;100.00
58947;BME280;44724;52.332;4.978;2022-10-16T05:55:08;101242.44;;;12.18;100.00
58947;BME280;44724;52.332;4.978;2022-10-16T05:57:33;101239.13;;;12.16;100.00
58947;BME280;44724;52.332;4.978;2022-10-16T06:00:02;101250.81;;;12.13;100.00
58947;BME280;44724;52.332;4.978;2022-10-16T06:02:38;101249.97;;;12.12;100.00
58947;BME280;44724;52.332;4.978;2022-10-16T06:05:04;101251.66;;;12.13;100.00
58947;BME280;44724;52.332;4.978;2022-10-16T06:07:34;101246.34;;;12.17;100.00
58947;BME280;44724;52.332;4.978;2022-10-16T06:10:00;101242.19;;;12.14;100.00
58947;BME280;44724;52.332;4.978;2022-10-16T06:12:26;101246.03;;;12.18;100.00
58947;BME280;44724;52.332;4.978;2022-10-16T06:14:52;101239.13;;;12.16;100.00
58947;BME280;44724;52.332;4.978;2022-10-16T06:17:17;101254.66;;;12.17;100.00
58947;BME280;44724;52.332;4.978;2022-10-16T06:19:42;101249.13;;;12.17;100.00
58947;BME280;44724;52.332;4.978;2022-10-16T06:22:08;101258.25;;;12.17;100.00
58947;BME280;44724;52.332;4.978;2022-10-16T06:24:33;101253.78;;;12.22;100.00
58947;BME280;44724;52.332;4.978;2022-10-16T06:26:59;101259.63;;;12.20;100.00
58947;BME280;44724;52.332;4.978;2022-10-16T06:29:24;101268.78;;;12.21;100.00
58947;BME280;44724;52.332;4.978;2022-10-16T06:31:49;101271.25;;;12.22;100.00
58947;BME280;44724;52.332;4.978;2022-10-16T06:34:15;101265.41;;;12.24;100.00
58947;BME280;44724;52.332;4.978;2022-10-16T06:36:40;101281.25;;;12.23;100.00
58947;BME280;44724;52.332;4.978;2022-10-16T06:39:06;101291.75;;;12.26;100.00
58947;BME280;44724;52.332;4.978;2022-10-16T06:41:33;101277.88;;;12.26;100.00
58947;BME280;44724;52.332;4.978;2022-10-16T06:44:09;101291.19;;;12.29;100.00
58947;BME280;44724;52.332;4.978;2022-10-16T06:46:34;101289.00;;;12.26;100.00
58947;BME280;44724;52.332;4.978;2022-10-16T06:49:00;101295.88;;;12.29;100.00
58947;BME280;44724;52.332;4.978;2022-10-16T06:51:25;101299.50;;;12.29;100.00
58947;BME280;44724;52.332;4.978;2022-10-16T06:53:54;101289.47;;;12.33;100.00
58947;BME280;44724;52.332;4.978;2022-10-16T06:56:31;101303.41;;;12.28;100.00
58947;BME280;44724;52.332;4.978;2022-10-16T06:58:58;101297.22;;;12.36;100.00
58947;BME280;44724;52.332;4.978;2022-10-16T07:01:26;101288.91;;;12.36;100.00
58947;BME280;44724;52.332;4.978;2022-10-16T07:04:01;101305.06;;;12.29;100.00
58947;BME280;44724;52.332;4.978;2022-10-16T07:06:31;101301.72;;;12.27;100.00
58947;BME280;44724;52.332;4.978;2022-10-16T07:08:57;101305.06;;;12.29;100.00
58947;BME280;44724;52.332;4.978;2022-10-16T07:11:23;101320.53;;;12.35;100.00
58947;BME280;44724;52.332;4.978;2022-10-16T07:13:49;101321.09;;;12.32;100.00
58947;BME280;44724;52.332;4.978;2022-10-16T07:16:18;101315.84;;;12.31;100.00
58947;BME280;44724;52.332;4.978;2022-10-16T07:18:44;101324.16;;;12.31;100.00
58947;BME280;44724;52.332;4.978;2022-10-16T07:21:13;101328.94;;;12.25;100.00
58947;BME280;44724;52.332;4.978;2022-10-16T07:23:40;101335.88;;;12.28;100.00
58947;BME280;44724;52.332;4.978;2022-10-16T07:26:06;101338.66;;;12.28;100.00
58947;BME280;44724;52.332;4.978;2022-10-16T07:28:32;101346.38;;;12.31;100.00
58947;BME280;44724;52.332;4.978;2022-10-16T07:31:06;101345.75;;;12.39;100.00
58947;BME280;44724;52.332;4.978;2022-10-16T07:33:33;101349.59;;;12.43;100.00
58947;BME280;44724;52.332;4.978;2022-10-16T07:35:59;101345.69;;;12.49;100.00
58947;BME280;44724;52.332;4.978;2022-10-16T07:38:25;101348.94;;;12.57;100.00
58947;BME280;44724;52.332;4.978;2022-10-16T07:41:01;101345.00;;;12.63;100.00
58947;BME280;44724;52.332;4.978;2022-10-16T07:43:27;101348.22;;;12.75;100.00
58947;BME280;44724;52.332;4.978;2022-10-16T07:45:56;101348.41;;;12.84;100.00
58947;BME280;44724;52.332;4.978;2022-10-16T07:48:22;101347.22;;;12.95;100.00
58947;BME280;44724;52.332;4.978;2022-10-16T07:50:48;101349.63;;;13.02;100.00
58947;BME280;44724;52.332;4.978;2022-10-16T07:53:14;101351.47;;;13.11;100.00
58947;BME280;44724;52.332;4.978;2022-10-16T07:55:39;101350.56;;;13.16;100.00
58947;BME280;44724;52.332;4.978;2022-10-16T07:58:05;101348.50;;;13.27;100.00
58947;BME280;44724;52.332;4.978;2022-10-16T08:00:31;101354.03;;;13.32;100.00
58947;BME280;44724;52.332;4.978;2022-10-16T08:02:57;101361.75;;;13.40;100.00
58947;BME280;44724;52.332;4.978;2022-10-16T08:05:26;101358.38;;;13.43;100.00
58947;BME280;44724;52.332;4.978;2022-10-16T08:07:52;101365.06;;;13.42;100.00
58947;BME280;44724;52.332;4.978;2022-10-16T08:10:20;101377.84;;;13.43;100.00
58947;BME280;44724;52.332;4.978;2022-10-16T08:12:46;101389.13;;;13.52;100.00
58947;BME280;44724;52.332;4.978;2022-10-16T08:15:11;101375.53;;;13.50;100.00
58947;BME280;44724;52.332;4.978;2022-10-16T08:17:37;101383.44;;;13.62;100.00
58947;BME280;44724;52.332;4.978;2022-10-16T08:20:03;101381.22;;;13.64;100.00
58947;BME280;44724;52.332;4.978;2022-10-16T08:22:29;101377.28;;;13.65;100.00
58947;BME280;44724;52.332;4.978;2022-10-16T08:24:55;101383.91;;;13.69;100.00
58947;BME280;44724;52.332;4.978;2022-10-16T08:27:20;101388.06;;;13.72;100.00
58947;BME280;44724;52.332;4.978;2022-10-16T08:29:48;101392.41;;;13.78;100.00
58947;BME280;44724;52.332;4.978;2022-10-16T08:32:13;101390.88;;;13.91;100.00
58947;BME280;44724;52.332;4.978;2022-10-16T08:34:39;101392.38;;;14.02;100.00
58947;BME280;44724;52.332;4.978;2022-10-16T08:37:04;101393.50;;;14.01;100.00
58947;BME280;44724;52.332;4.978;2022-10-16T08:39:30;101402.63;;;14.07;100.00
58947;BME280;44724;52.332;4.978;2022-10-16T08:50:38;101427.88;;;14.30;100.00
58947;BME280;44724;52.332;4.978;2022-10-16T08:53:05;101427.66;;;14.26;100.00
58947;BME280;44724;52.332;4.978;2022-10-16T08:58:01;101441.22;;;14.52;100.00
58947;BME280;44724;52.332;4.978;2022-10-16T09:00:27;101439.13;;;14.62;100.00
58947;BME280;44724;52.332;4.978;2022-10-16T09:03:06;101442.41;;;14.83;100.00
58947;BME280;44724;52.332;4.978;2022-10-16T09:05:48;101444.31;;;15.02;100.00
58947;BME280;44724;52.332;4.978;2022-10-16T09:08:44;101457.38;;;15.20;100.00
58947;BME280;44724;52.332;4.978;2022-10-16T09:14:10;101454.22;;;15.41;100.00
58947;BME280;44724;52.332;4.978;2022-10-16T09:16:48;101458.97;;;15.40;100.00
58947;BME280;44724;52.332;4.978;2022-10-16T09:19:23;101465.47;;;15.36;100.00
58947;BME280;44724;52.332;4.978;2022-10-16T09:21:51;101476.63;;;15.36;100.00
58947;BME280;44724;52.332;4.978;2022-10-16T09:24:23;101476.88;;;15.20;100.00
58947;BME280;44724;52.332;4.978;2022-10-16T09:26:49;101480.38;;;15.12;100.00
58947;BME280;44724;52.332;4.978;2022-10-16T09:29:16;101481.38;;;15.02;100.00
58947;BME280;44724;52.332;4.978;2022-10-16T09:31:45;101494.88;;;14.95;100.00
58947;BME280;44724;52.332;4.978;2022-10-16T09:34:24;101503.81;;;15.11;100.00
58947;BME280;44724;52.332;4.978;2022-10-16T09:36:53;101485.25;;;15.20;100.00
58947;BME280;44724;52.332;4.978;2022-10-16T09:39:19;101488.81;;;15.40;100.00
58947;BME280;44724;52.332;4.978;2022-10-16T09:41:45;101485.72;;;15.42;100.00
58947;BME280;44724;52.332;4.978;2022-10-16T09:44:29;101496.16;;;15.50;100.00
58947;BME280;44724;52.332;4.978;2022-10-16T09:47:03;101499.50;;;15.66;100.00
58947;BME280;44724;52.332;4.978;2022-10-16T09:49:28;101500.69;;;15.78;100.00
58947;BME280;44724;52.332;4.978;2022-10-16T09:52:12;101488.16;;;15.90;100.00
58947;BME280;44724;52.332;4.978;2022-10-16T09:54:49;101474.22;;;16.04;100.00
58947;BME280;44724;52.332;4.978;2022-10-16T09:57:14;101486.22;;;15.90;100.00
58947;BME280;44724;52.332;4.978;2022-10-16T09:59:51;101497.94;;;15.73;100.00
58947;BME280;44724;52.332;4.978;2022-10-16T10:02:20;101500.53;;;15.70;100.00
58947;BME280;44724;52.332;4.978;2022-10-16T10:04:53;101504.19;;;15.98;100.00
58947;BME280;44724;52.332;4.978;2022-10-16T10:07:45;101490.25;;;15.98;100.00
58947;BME280;44724;52.332;4.978;2022-10-16T10:10:26;101498.50;;;15.89;100.00
58947;BME280;44724;52.332;4.978;2022-10-16T10:12:53;101495.53;;;16.00;100.00
58947;BME280;44724;52.332;4.978;2022-10-16T10:15:19;101489.50;;;16.20;100.00
58947;BME280;44724;52.332;4.978;2022-10-16T10:17:52;101501.69;;;16.38;100.00
58947;BME280;44724;52.332;4.978;2022-10-16T10:20:35;101496.50;;;16.45;100.00
58947;BME280;44724;52.332;4.978;2022-10-16T10:23:21;101491.31;;;16.52;100.00
58947;BME280;44724;52.332;4.978;2022-10-16T10:26:05;101489.19;;;16.72;100.00
58947;BME280;44724;52.332;4.978;2022-10-16T10:28:44;101512.22;;;16.91;100.00
58947;BME280;44724;52.332;4.978;2022-10-16T10:31:42;101507.59;;;16.73;100.00
58947;BME280;44724;52.332;4.978;2022-10-16T10:37:08;101516.59;;;16.84;100.00
58947;BME280;44724;52.332;4.978;2022-10-16T10:39:50;101518.13;;;16.90;100.00
58947;BME280;44724;52.332;4.978;2022-10-16T10:42:30;101512.81;;;16.52;100.00
58947;BME280;44724;52.332;4.978;2022-10-16T10:45:24;101523.59;;;16.45;100.00
58947;BME280;44724;52.332;4.978;2022-10-16T10:48:12;101522.66;;;16.49;100.00
58947;BME280;44724;52.332;4.978;2022-10-16T10:54:06;101530.03;;;16.45;100.00
58947;BME280;44724;52.332;4.978;2022-10-16T10:56:44;101520.06;;;16.53;100.00
58947;BME280;44724;52.332;4.978;2022-10-16T10:59:22;101530.72;;;16.51;100.00
58947;BME280;44724;52.332;4.978;2022-10-16T11:02:00;101524.63;;;16.49;100.00
58947;BME280;44724;52.332;4.978;2022-10-16T11:05:05;101528.66;;;16.43;100.00
58947;BME280;44724;52.332;4.978;2022-10-16T11:07:39;101530.63;;;16.56;100.00
58947;BME280;44724;52.332;4.978;2022-10-16T11:10:15;101530.25;;;16.35;100.00
58947;BME280;44724;52.332;4.978;2022-10-16T11:12:47;101539.13;;;16.37;100.00
58947;BME280;44724;52.332;4.978;2022-10-16T11:15:30;101540.59;;;16.34;100.00
58947;BME280;44724;52.332;4.978;2022-10-16T11:18:20;101537.81;;;16.34;100.00
58947;BME280;44724;52.332;4.978;2022-10-16T11:20:52;101530.84;;;16.46;100.00
58947;BME280;44724;52.332;4.978;2022-10-16T11:23:36;101536.44;;;16.46;100.00
58947;BME280;44724;52.332;4.978;2022-10-16T11:26:08;101537.94;;;16.66;100.00
58947;BME280;44724;52.332;4.978;2022-10-16T11:28:42;101548.69;;;16.72;100.00
58947;BME280;44724;52.332;4.978;2022-10-16T11:31:16;101535.72;;;16.77;100.00
58947;BME280;44724;52.332;4.978;2022-10-16T11:33:47;101542.47;;;16.76;100.00
58947;BME280;44724;52.332;4.978;2022-10-16T11:36:22;101547.72;;;16.91;100.00
58947;BME280;44724;52.332;4.978;2022-10-16T11:41:38;101538.03;;;17.11;100.00
58947;BME280;44724;52.332;4.978;2022-10-16T11:44:33;101540.56;;;17.21;100.00
58947;BME280;44724;52.332;4.978;2022-10-16T11:47:15;101549.34;;;17.06;100.00
58947;BME280;44724;52.332;4.978;2022-10-16T11:49:45;101543.81;;;17.37;100.00
58947;BME280;44724;52.332;4.978;2022-10-16T11:52:40;101554.22;;;17.45;100.00
58947;BME280;44724;52.332;4.978;2022-10-16T11:58:33;101541.72;;;17.20;100.00
58947;BME280;44724;52.332;4.978;2022-10-16T12:01:10;101547.94;;;17.40;100.00
58947;BME280;44724;52.332;4.978;2022-10-16T12:07:15;101552.00;;;17.56;100.00
58947;BME280;44724;52.332;4.978;2022-10-16T12:09:42;101549.31;;;17.51;100.00
58947;BME280;44724;52.332;4.978;2022-10-16T12:12:38;101563.69;;;17.58;100.00
58947;BME280;44724;52.332;4.978;2022-10-16T12:15:27;101559.44;;;17.61;100.00
58947;BME280;44724;52.332;4.978;2022-10-16T12:18:21;101554.22;;;17.68;100.00
58947;BME280;44724;52.332;4.978;2022-10-16T12:21:00;101561.94;;;17.71;100.00
58947;BME280;44724;52.332;4.978;2022-10-16T12:23:46;101561.94;;;17.62;100.00
58947;BME280;44724;52.332;4.978;2022-10-16T12:26:26;101565.41;;;17.68;100.00
58947;BME280;44724;52.332;4.978;2022-10-16T12:28:54;101569.16;;;17.63;100.00
58947;BME280;44724;52.332;4.978;2022-10-16T12:31:22;101575.66;;;17.50;100.00
58947;BME280;44724;52.332;4.978;2022-10-16T12:34:01;101568.78;;;17.56;100.00
58947;BME280;44724;52.332;4.978;2022-10-16T12:36:30;101570.81;;;17.64;100.00
58947;BME280;44724;52.332;4.978;2022-10-16T12:38:57;101577.75;;;17.67;100.00
58947;BME280;44724;52.332;4.978;2022-10-16T12:41:38;101571.22;;;17.49;100.00
58947;BME280;44724;52.332;4.978;2022-10-16T12:44:22;101578.66;;;17.54;100.00
58947;BME280;44724;52.332;4.978;2022-10-16T12:46:50;101585.31;;;17.66;100.00
58947;BME280;44724;52.332;4.978;2022-10-16T12:51:54;101583.88;;;17.46;100.00
58947;BME280;44724;52.332;4.978;2022-10-16T12:54:29;101579.72;;;17.44;100.00
58947;BME280;44724;52.332;4.978;2022-10-16T12:57:16;101584.69;;;17.47;100.00
58947;BME280;44724;52.332;4.978;2022-10-16T12:59:55;101581.72;;;17.43;100.00
58947;BME280;44724;52.332;4.978;2022-10-16T13:24:55;101597.53;;;17.25;100.00
58947;BME280;44724;52.332;4.978;2022-10-16T13:27:54;101606.63;;;17.31;100.00
58947;BME280;44724;52.332;4.978;2022-10-16T13:30:31;101605.41;;;17.23;100.00
58947;BME280;44724;52.332;4.978;2022-10-16T13:35:57;101609.09;;;17.33;100.00
58947;BME280;44724;52.332;4.978;2022-10-16T13:38:30;101607.09;;;17.10;100.00
58947;BME280;44724;52.332;4.978;2022-10-16T13:41:01;101620.25;;;17.10;100.00
58947;BME280;44724;52.332;4.978;2022-10-16T13:43:37;101633.34;;;17.01;100.00
58947;BME280;44724;52.332;4.978;2022-10-16T13:46:07;101630.94;;;17.08;100.00
58947;BME280;44724;52.332;4.978;2022-10-16T13:48:36;101636.34;;;16.90;100.00
58947;BME280;44724;52.332;4.978;2022-10-16T13:51:12;101639.56;;;16.98;100.00
58947;BME280;44724;52.332;4.978;2022-10-16T13:53:47;101648.97;;;17.02;100.00
58947;BME280;44724;52.332;4.978;2022-10-16T13:56:16;101645.22;;;17.06;100.00
58947;BME280;44724;52.332;4.978;2022-10-16T13:58:42;101636.53;;;17.08;100.00
58947;BME280;44724;52.332;4.978;2022-10-16T14:01:29;101634.25;;;17.10;100.00
58947;BME280;44724;52.332;4.978;2022-10-16T14:04:02;101635.50;;;17.04;100.00
58947;BME280;44724;52.332;4.978;2022-10-16T14:06:30;101647.50;;;17.18;100.00
58947;BME280;44724;52.332;4.978;2022-10-16T14:09:08;101652.81;;;17.06;100.00